createdAt,value
2016-11-16T00:00:54.249Z,961.01
2016-11-16T00:01:54.267Z,960.98
2016-11-16T00:02:54.284Z,960.96
2016-11-16T00:03:54.301Z,960.93
2016-11-16T00:04:54.317Z,960.94
2016-11-16T00:05:54.338Z,960.94
2016-11-16T00:06:54.355Z,960.92
2016-11-16T00:07:54.371Z,960.95
2016-11-16T00:08:54.389Z,960.94
2016-11-16T00:09:54.406Z,960.92
2016-11-16T00:10:54.424Z,960.92
2016-11-16T00:11:54.441Z,960.95
2016-11-16T00:12:54.464Z,960.95
2016-11-16T00:13:54.476Z,960.97
2016-11-16T00:14:54.493Z,960.97
2016-11-16T00:15:54.511Z,960.9
2016-11-16T00:16:54.528Z,960.91
2016-11-16T00:17:54.546Z,960.9
2016-11-16T00:18:54.564Z,960.9
2016-11-16T00:19:54.582Z,960.91
2016-11-16T00:20:54.621Z,960.88
2016-11-16T00:21:54.617Z,960.89
2016-11-16T00:22:54.633Z,960.88
2016-11-16T00:23:54.652Z,960.86
2016-11-16T00:24:54.670Z,960.89
2016-11-16T00:25:54.686Z,960.9
2016-11-16T00:26:54.705Z,960.85
2016-11-16T00:27:54.722Z,960.82
2016-11-16T00:28:54.740Z,960.8
2016-11-16T00:29:54.756Z,960.76
2016-11-16T00:30:54.775Z,960.81
2016-11-16T00:31:54.793Z,960.78
2016-11-16T00:32:54.834Z,960.8
2016-11-16T00:33:54.827Z,960.77
2016-11-16T00:34:54.845Z,960.8
2016-11-16T00:35:54.862Z,960.81
2016-11-16T00:36:54.879Z,960.82
2016-11-16T00:37:54.898Z,960.85
2016-11-16T00:38:54.915Z,960.86
2016-11-16T00:39:54.933Z,960.85
2016-11-16T00:40:54.949Z,960.87
2016-11-16T00:41:54.972Z,960.84
2016-11-16T00:42:54.987Z,960.85
2016-11-16T00:43:55.004Z,960.79
2016-11-16T00:44:55.021Z,960.83
2016-11-16T00:45:55.039Z,960.83
2016-11-16T00:46:55.065Z,960.84
2016-11-16T00:47:55.074Z,960.84
2016-11-16T00:48:55.092Z,960.85
2016-11-16T00:49:55.110Z,960.81
2016-11-16T00:50:55.127Z,960.78
2016-11-16T00:51:55.145Z,960.79
2016-11-16T00:52:55.163Z,960.81
2016-11-16T00:53:55.181Z,960.86
2016-11-16T00:54:55.199Z,960.77
2016-11-16T00:55:55.216Z,960.82
2016-11-16T00:56:55.234Z,960.81
2016-11-16T00:57:55.252Z,960.84
2016-11-16T00:58:55.269Z,960.78
2016-11-16T00:59:55.286Z,960.78
2016-11-16T01:00:55.315Z,960.75
2016-11-16T01:01:55.323Z,960.76
2016-11-16T01:02:55.339Z,960.75
2016-11-16T01:03:55.358Z,960.75
2016-11-16T01:04:55.384Z,960.73
2016-11-16T01:05:55.394Z,960.72
2016-11-16T01:06:55.413Z,960.72
2016-11-16T01:07:55.430Z,960.73
2016-11-16T01:08:55.448Z,960.7
2016-11-16T01:09:55.466Z,960.67
2016-11-16T01:10:55.495Z,960.7
2016-11-16T01:11:55.502Z,960.71
2016-11-16T01:12:55.538Z,960.7
2016-11-16T01:13:55.540Z,960.66
2016-11-16T01:14:55.563Z,960.72
2016-11-16T01:15:55.574Z,960.7
2016-11-16T01:16:55.591Z,960.7
2016-11-16T01:17:55.608Z,960.71
2016-11-16T01:18:55.627Z,960.7
2016-11-16T01:19:55.656Z,960.69
2016-11-16T01:20:55.662Z,960.69
2016-11-16T01:21:55.680Z,960.72
2016-11-16T01:22:55.698Z,960.73
2016-11-16T01:23:55.716Z,960.72
2016-11-16T01:24:55.733Z,960.71
2016-11-16T01:25:55.753Z,960.71
2016-11-16T01:26:55.770Z,960.71
2016-11-16T01:27:55.787Z,960.73
2016-11-16T01:28:55.805Z,960.69
2016-11-16T01:29:55.822Z,960.69
2016-11-16T01:30:55.842Z,960.68
2016-11-16T01:31:55.857Z,960.67
2016-11-16T01:32:55.883Z,960.68
2016-11-16T01:33:55.895Z,960.69
2016-11-16T01:34:55.912Z,960.66
2016-11-16T01:35:55.930Z,960.65
2016-11-16T01:36:55.948Z,960.63
2016-11-16T01:37:55.965Z,960.66
2016-11-16T01:38:55.984Z,960.63
2016-11-16T01:39:56.001Z,960.63
2016-11-16T01:40:56.019Z,960.66
2016-11-16T01:41:56.036Z,960.65
2016-11-16T01:42:56.055Z,960.65
2016-11-16T01:43:56.072Z,960.65
2016-11-16T01:44:56.111Z,960.64
2016-11-16T01:45:56.108Z,960.65
2016-11-16T01:46:56.125Z,960.65
2016-11-16T01:47:56.143Z,960.7
2016-11-16T01:48:56.162Z,960.66
2016-11-16T01:49:56.178Z,960.67
2016-11-16T01:50:56.197Z,960.62
2016-11-16T01:51:56.215Z,960.64
2016-11-16T01:52:56.233Z,960.66
2016-11-16T01:53:56.254Z,960.66
2016-11-16T01:54:56.267Z,960.63
2016-11-16T01:55:56.286Z,960.65
2016-11-16T01:56:56.312Z,960.67
2016-11-16T01:57:56.321Z,960.65
2016-11-16T01:58:56.340Z,960.66
2016-11-16T01:59:56.356Z,960.64
2016-11-16T02:00:56.376Z,960.62
2016-11-16T02:01:56.393Z,960.62
2016-11-16T02:02:56.410Z,960.61
2016-11-16T02:03:56.429Z,960.58
2016-11-16T02:04:56.459Z,960.57
2016-11-16T02:05:56.464Z,960.56
2016-11-16T02:06:56.481Z,960.59
2016-11-16T02:07:56.500Z,960.62
2016-11-16T02:08:56.517Z,960.63
2016-11-16T02:09:56.535Z,960.58
2016-11-16T02:10:56.553Z,960.54
2016-11-16T02:11:56.569Z,960.54
2016-11-16T02:12:56.595Z,960.54
2016-11-16T02:13:56.605Z,960.55
2016-11-16T02:14:56.624Z,960.49
2016-11-16T02:15:56.640Z,960.51
2016-11-16T02:16:56.657Z,960.48
2016-11-16T02:17:56.676Z,960.52
2016-11-16T02:18:56.703Z,960.5
2016-11-16T02:19:56.725Z,960.49
2016-11-16T02:20:56.729Z,960.52
2016-11-16T02:21:56.746Z,960.53
2016-11-16T02:22:56.765Z,960.48
2016-11-16T02:23:56.779Z,960.48
2016-11-16T02:24:56.797Z,960.5
2016-11-16T02:25:56.816Z,960.47
2016-11-16T02:26:56.849Z,960.45
2016-11-16T02:27:56.851Z,960.42
2016-11-16T02:28:56.868Z,960.45
2016-11-16T02:29:56.886Z,960.43
2016-11-16T02:30:56.902Z,960.41
2016-11-16T02:31:56.920Z,960.4
2016-11-16T02:32:56.938Z,960.39
2016-11-16T02:33:56.953Z,960.41
2016-11-16T02:34:56.972Z,960.44
2016-11-16T02:35:56.990Z,960.4
2016-11-16T02:36:57.007Z,960.37
2016-11-16T02:37:57.024Z,960.35
2016-11-16T02:38:57.047Z,960.38
2016-11-16T02:39:57.059Z,960.34
2016-11-16T02:40:57.075Z,960.35
2016-11-16T02:41:57.094Z,960.3
2016-11-16T02:42:57.123Z,960.3
2016-11-16T02:43:57.129Z,960.32
2016-11-16T02:44:57.157Z,960.28
2016-11-16T02:45:57.163Z,960.31
2016-11-16T02:46:57.181Z,960.27
2016-11-16T02:47:57.198Z,960.27
2016-11-16T02:48:57.214Z,960.26
2016-11-16T02:49:57.232Z,960.25
2016-11-16T02:50:57.250Z,960.21
2016-11-16T02:51:57.266Z,960.19
2016-11-16T02:52:57.284Z,960.16
2016-11-16T02:53:57.301Z,960.12
2016-11-16T02:54:57.319Z,960.13
2016-11-16T02:55:57.335Z,960.13
2016-11-16T02:56:57.354Z,960.15
2016-11-16T02:57:57.370Z,960.1
2016-11-16T02:58:57.395Z,960.09
2016-11-16T02:59:57.404Z,960.04
2016-11-16T03:00:57.422Z,960.07
2016-11-16T03:01:57.439Z,960.08
2016-11-16T03:02:57.456Z,960.09
2016-11-16T03:03:57.474Z,960.06
2016-11-16T03:04:57.491Z,960.09
2016-11-16T03:05:57.508Z,960.03
2016-11-16T03:06:57.525Z,960.05
2016-11-16T03:07:57.541Z,960
2016-11-16T03:08:57.558Z,960.04
2016-11-16T03:09:57.575Z,960
2016-11-16T03:10:57.603Z,960.03
2016-11-16T03:11:57.628Z,960
2016-11-16T03:12:57.625Z,960
2016-11-16T03:13:57.642Z,960.01
2016-11-16T03:14:57.659Z,960.04
2016-11-16T03:15:57.676Z,960
2016-11-16T03:16:57.694Z,960
2016-11-16T03:17:57.710Z,960.02
2016-11-16T03:18:57.728Z,960.02
2016-11-16T03:19:57.743Z,960.03
2016-11-16T03:20:57.762Z,960.05
2016-11-16T03:21:57.779Z,959.99
2016-11-16T03:22:57.795Z,959.94
2016-11-16T03:23:57.813Z,959.98
2016-11-16T03:24:57.831Z,959.99
2016-11-16T03:25:57.848Z,959.95
2016-11-16T03:26:57.865Z,959.93
2016-11-16T03:27:57.883Z,959.88
2016-11-16T03:28:57.899Z,959.91
2016-11-16T03:29:57.917Z,959.93
2016-11-16T03:30:57.933Z,959.91
2016-11-16T03:31:57.952Z,959.9
2016-11-16T03:32:57.977Z,959.88
2016-11-16T03:33:57.987Z,959.86
2016-11-16T03:34:58.004Z,959.85
2016-11-16T03:35:58.019Z,959.84
2016-11-16T03:36:58.047Z,959.82
2016-11-16T03:37:58.054Z,959.86
2016-11-16T03:38:58.079Z,959.83
2016-11-16T03:39:58.089Z,959.8
2016-11-16T03:40:58.115Z,959.83
2016-11-16T03:41:58.123Z,959.84
2016-11-16T03:42:58.142Z,959.84
2016-11-16T03:43:58.157Z,959.84
2016-11-16T03:44:58.183Z,959.86
2016-11-16T03:45:58.193Z,959.85
2016-11-16T03:46:58.210Z,959.85
2016-11-16T03:47:58.227Z,959.84
2016-11-16T03:48:58.259Z,959.86
2016-11-16T03:49:58.262Z,959.84
2016-11-16T03:50:58.287Z,959.84
2016-11-16T03:51:58.297Z,959.86
2016-11-16T03:52:58.319Z,959.85
2016-11-16T03:53:58.331Z,959.82
2016-11-16T03:54:58.355Z,959.85
2016-11-16T03:55:58.377Z,959.86
2016-11-16T03:56:58.384Z,959.86
2016-11-16T03:57:58.399Z,959.83
2016-11-16T03:58:58.423Z,959.81
2016-11-16T03:59:58.434Z,959.84
2016-11-16T04:00:58.453Z,959.8
2016-11-16T04:01:58.468Z,959.8
2016-11-16T04:02:58.495Z,959.81
2016-11-16T04:03:58.504Z,959.76
2016-11-16T04:04:58.523Z,959.76
2016-11-16T04:05:58.538Z,959.77
2016-11-16T04:06:58.555Z,959.78
2016-11-16T04:07:58.574Z,959.78
2016-11-16T04:08:58.590Z,959.77
2016-11-16T04:09:58.608Z,959.79
2016-11-16T04:10:58.625Z,959.74
2016-11-16T04:11:58.643Z,959.75
2016-11-16T04:12:58.660Z,959.75
2016-11-16T04:13:58.677Z,959.74
2016-11-16T04:14:58.696Z,959.73
2016-11-16T04:15:58.713Z,959.71
2016-11-16T04:16:58.730Z,959.7
2016-11-16T04:17:58.747Z,959.67
2016-11-16T04:18:58.767Z,959.73
2016-11-16T04:19:58.782Z,959.7
2016-11-16T04:20:58.800Z,959.71
2016-11-16T04:21:58.818Z,959.7
2016-11-16T04:22:58.835Z,959.69
2016-11-16T04:23:58.852Z,959.65
2016-11-16T04:24:58.870Z,959.64
2016-11-16T04:25:58.888Z,959.65
2016-11-16T04:26:58.904Z,959.65
2016-11-16T04:27:58.922Z,959.65
2016-11-16T04:28:58.940Z,959.66
2016-11-16T04:29:58.956Z,959.61
2016-11-16T04:30:58.974Z,959.62
2016-11-16T04:31:58.991Z,959.59
2016-11-16T04:32:59.010Z,959.57
2016-11-16T04:33:59.027Z,959.58
2016-11-16T04:34:59.044Z,959.54
2016-11-16T04:35:59.062Z,959.58
2016-11-16T04:36:59.079Z,959.56
2016-11-16T04:37:59.095Z,959.54
2016-11-16T04:38:59.113Z,959.54
2016-11-16T04:39:59.131Z,959.55
2016-11-16T04:40:59.164Z,959.56
2016-11-16T04:41:59.166Z,959.53
2016-11-16T04:42:59.183Z,959.54
2016-11-16T04:43:59.201Z,959.51
2016-11-16T04:44:59.219Z,959.53
2016-11-16T04:45:59.235Z,959.56
2016-11-16T04:46:59.254Z,959.5
2016-11-16T04:47:59.288Z,959.54
2016-11-16T04:48:59.287Z,959.52
2016-11-16T04:49:59.304Z,959.53
2016-11-16T04:50:59.324Z,959.51
2016-11-16T04:51:59.340Z,959.52
2016-11-16T04:52:59.357Z,959.5
2016-11-16T04:53:59.375Z,959.47
2016-11-16T04:54:59.392Z,959.49
2016-11-16T04:55:59.410Z,959.42
2016-11-16T04:56:59.426Z,959.48
2016-11-16T04:57:59.444Z,959.44
2016-11-16T04:58:59.462Z,959.48
2016-11-16T04:59:59.477Z,959.43
2016-11-16T05:00:59.496Z,959.39
2016-11-16T05:01:59.513Z,959.43
2016-11-16T05:02:59.531Z,959.44
2016-11-16T05:03:59.548Z,959.39
2016-11-16T05:04:59.565Z,959.38
2016-11-16T05:05:59.582Z,959.39
2016-11-16T05:06:59.609Z,959.41
2016-11-16T05:07:59.618Z,959.38
2016-11-16T05:08:59.634Z,959.41
2016-11-16T05:09:59.655Z,959.4
2016-11-16T05:10:59.675Z,959.36
2016-11-16T05:11:59.685Z,959.37
2016-11-16T05:12:59.711Z,959.39
2016-11-16T05:13:59.723Z,959.39
2016-11-16T05:14:59.738Z,959.34
2016-11-16T05:15:59.755Z,959.39
2016-11-16T05:16:59.775Z,959.36
2016-11-16T05:17:59.792Z,959.36
2016-11-16T05:18:59.807Z,959.36
2016-11-16T05:19:59.823Z,959.35
2016-11-16T05:20:59.842Z,959.37
2016-11-16T05:21:59.858Z,959.35
2016-11-16T05:22:59.874Z,959.32
2016-11-16T05:23:59.893Z,959.31
2016-11-16T05:24:59.998Z,959.32
2016-11-16T05:25:59.930Z,959.31
2016-11-16T05:26:59.945Z,959.32
2016-11-16T05:27:59.962Z,959.31
2016-11-16T05:28:59.980Z,959.34
2016-11-16T05:29:59.997Z,959.31
2016-11-16T05:31:00.015Z,959.3
2016-11-16T05:32:00.032Z,959.29
2016-11-16T05:33:00.049Z,959.32
2016-11-16T05:34:00.067Z,959.32
2016-11-16T05:35:00.083Z,959.35
2016-11-16T05:36:00.101Z,959.31
2016-11-16T05:37:00.117Z,959.27
2016-11-16T05:38:00.134Z,959.32
2016-11-16T05:39:00.153Z,959.26
2016-11-16T05:40:00.170Z,959.32
2016-11-16T05:41:00.187Z,959.31
2016-11-16T05:42:00.206Z,959.27
2016-11-16T05:43:00.223Z,959.3
2016-11-16T05:44:00.240Z,959.3
2016-11-16T05:45:00.257Z,959.31
2016-11-16T05:46:00.274Z,959.3
2016-11-16T05:47:00.293Z,959.26
2016-11-16T05:48:00.309Z,959.27
2016-11-16T05:49:00.327Z,959.25
2016-11-16T05:50:00.344Z,959.27
2016-11-16T05:51:00.363Z,959.24
2016-11-16T05:52:00.381Z,959.23
2016-11-16T05:53:00.400Z,959.25
2016-11-16T05:54:00.416Z,959.24
2016-11-16T05:55:00.437Z,959.26
2016-11-16T05:57:00.470Z,959.24
2016-11-16T05:58:00.487Z,959.25
2016-11-16T05:59:00.503Z,959.23
2016-11-16T06:00:00.521Z,959.22
2016-11-16T06:01:00.538Z,959.25
2016-11-16T06:02:00.556Z,959.23
2016-11-16T06:03:00.574Z,959.22
2016-11-16T06:04:00.592Z,959.26
2016-11-16T06:05:00.609Z,959.25
2016-11-16T06:06:00.625Z,959.23
2016-11-16T06:07:00.644Z,959.23
2016-11-16T06:08:00.661Z,959.23
2016-11-16T06:09:00.681Z,959.19
2016-11-16T06:10:00.706Z,959.24
2016-11-16T06:11:00.714Z,959.22
2016-11-16T06:12:00.733Z,959.2
2016-11-16T06:13:00.749Z,959.19
2016-11-16T06:14:00.767Z,959.2
2016-11-16T06:15:00.785Z,959.17
2016-11-16T06:16:00.804Z,959.18
2016-11-16T06:17:00.831Z,959.2
2016-11-16T06:18:00.837Z,959.19
2016-11-16T06:19:00.855Z,959.2
2016-11-16T06:20:00.873Z,959.16
2016-11-16T06:21:00.890Z,959.22
2016-11-16T06:22:00.907Z,959.18
2016-11-16T06:23:00.925Z,959.16
2016-11-16T06:24:00.942Z,959.22
2016-11-16T06:25:00.960Z,959.18
2016-11-16T06:26:00.978Z,959.16
2016-11-16T06:27:00.996Z,959.16
2016-11-16T06:28:01.012Z,959.18
2016-11-16T06:29:01.030Z,959.15
2016-11-16T06:30:01.048Z,959.17
2016-11-16T06:31:01.064Z,959.21
2016-11-16T06:32:01.082Z,959.19
2016-11-16T06:33:01.100Z,959.17
2016-11-16T06:34:01.118Z,959.16
2016-11-16T06:35:01.135Z,959.16
2016-11-16T06:36:01.153Z,959.16
2016-11-16T06:37:01.170Z,959.15
2016-11-16T06:38:01.188Z,959.22
2016-11-16T06:39:01.207Z,959.15
2016-11-16T06:40:01.223Z,959.15
2016-11-16T06:41:01.239Z,959.13
2016-11-16T06:42:01.258Z,959.14
2016-11-16T06:43:01.275Z,959.16
2016-11-16T06:44:01.291Z,959.13
2016-11-16T06:45:01.310Z,959.16
2016-11-16T06:46:01.327Z,959.12
2016-11-16T06:47:01.347Z,959.1
2016-11-16T06:48:01.364Z,959.1
2016-11-16T06:49:01.379Z,959.11
2016-11-16T06:50:01.395Z,959.08
2016-11-16T06:51:01.415Z,959.12
2016-11-16T06:52:01.432Z,959.11
2016-11-16T06:53:01.450Z,959.1
2016-11-16T06:54:01.474Z,959.13
2016-11-16T06:55:01.484Z,959.08
2016-11-16T06:56:01.502Z,959.1
2016-11-16T06:57:01.569Z,959.1
2016-11-16T06:58:01.540Z,959.14
2016-11-16T06:59:01.554Z,959.11
2016-11-16T07:00:01.572Z,959.1
2016-11-16T07:01:01.589Z,959.13
2016-11-16T07:02:01.618Z,959.09
2016-11-16T07:03:01.624Z,959.09
2016-11-16T07:04:01.642Z,959.1
2016-11-16T07:05:01.659Z,959.12
2016-11-16T07:06:01.677Z,959.12
2016-11-16T07:07:01.695Z,959.08
2016-11-16T07:08:01.710Z,959.1
2016-11-16T07:09:01.743Z,959.1
2016-11-16T07:10:01.747Z,959.13
2016-11-16T07:11:01.765Z,959.14
2016-11-16T07:12:01.782Z,959.17
2016-11-16T07:13:01.800Z,959.09
2016-11-16T07:14:01.822Z,959.08
2016-11-16T07:15:01.835Z,959.13
2016-11-16T07:16:01.852Z,959.12
2016-11-16T07:17:01.870Z,959.09
2016-11-16T07:18:01.889Z,959.1
2016-11-16T07:19:01.904Z,959.1
2016-11-16T07:20:01.923Z,959.06
2016-11-16T07:21:01.941Z,959.1
2016-11-16T07:22:01.959Z,959.09
2016-11-16T07:23:01.975Z,959.05
2016-11-16T07:24:01.994Z,959.1
2016-11-16T07:25:02.012Z,959.06
2016-11-16T07:26:02.029Z,959.11
2016-11-16T07:27:02.048Z,959.14
2016-11-16T07:28:02.070Z,959.05
2016-11-16T07:29:02.084Z,959.02
2016-11-16T07:30:02.101Z,959.08
2016-11-16T07:31:02.118Z,959.01
2016-11-16T07:32:02.137Z,959.02
2016-11-16T07:33:02.154Z,959.01
2016-11-16T07:34:02.170Z,959
2016-11-16T07:35:02.189Z,958.99
2016-11-16T07:36:02.208Z,959.03
2016-11-16T07:37:02.223Z,959.01
2016-11-16T07:38:02.281Z,958.99
2016-11-16T07:39:02.261Z,958.99
2016-11-16T07:40:02.279Z,958.98
2016-11-16T07:41:02.297Z,958.95
2016-11-16T07:42:02.313Z,958.92
2016-11-16T07:43:02.331Z,958.9
2016-11-16T07:44:02.350Z,958.93
2016-11-16T07:45:02.367Z,958.93
2016-11-16T07:46:02.383Z,958.89
2016-11-16T07:47:02.402Z,958.92
2016-11-16T07:48:02.419Z,958.92
2016-11-16T07:49:02.437Z,958.92
2016-11-16T07:50:02.455Z,958.91
2016-11-16T07:51:02.472Z,958.96
2016-11-16T07:52:02.491Z,958.95
2016-11-16T07:53:02.509Z,958.9
2016-11-16T07:54:02.529Z,958.86
2016-11-16T07:55:02.545Z,958.85
2016-11-16T07:56:02.562Z,958.87
2016-11-16T07:57:02.580Z,958.87
2016-11-16T07:58:02.599Z,958.89
2016-11-16T07:59:02.615Z,958.88
2016-11-16T08:00:02.633Z,958.89
2016-11-16T08:01:02.651Z,958.87
2016-11-16T08:02:02.669Z,958.86
2016-11-16T08:03:02.687Z,958.85
2016-11-16T08:04:02.705Z,958.84
2016-11-16T08:05:02.723Z,958.82
2016-11-16T08:06:02.741Z,958.84
2016-11-16T08:07:02.759Z,958.83
2016-11-16T08:08:02.776Z,958.82
2016-11-16T08:09:02.810Z,958.79
2016-11-16T08:10:02.838Z,958.75
2016-11-16T08:11:02.832Z,958.74
2016-11-16T08:12:02.849Z,958.7
2016-11-16T08:13:02.867Z,958.71
2016-11-16T08:14:02.885Z,958.73
2016-11-16T08:15:02.927Z,958.69
2016-11-16T08:16:02.935Z,958.69
2016-11-16T08:17:02.939Z,958.7
2016-11-16T08:18:02.957Z,958.69
2016-11-16T08:19:02.975Z,958.68
2016-11-16T08:20:02.993Z,958.7
2016-11-16T08:21:03.010Z,958.69
2016-11-16T08:22:03.028Z,958.64
2016-11-16T08:23:03.048Z,958.67
2016-11-16T08:24:03.065Z,958.63
2016-11-16T08:25:03.083Z,958.65
2016-11-16T08:26:03.102Z,958.67
2016-11-16T08:27:03.119Z,958.67
2016-11-16T08:28:03.139Z,958.68
2016-11-16T08:29:03.155Z,958.67
2016-11-16T08:30:03.208Z,958.67
2016-11-16T08:31:03.192Z,958.68
2016-11-16T08:32:03.210Z,958.68
2016-11-16T08:33:03.228Z,958.7
2016-11-16T08:34:03.247Z,958.72
2016-11-16T08:35:03.272Z,958.72
2016-11-16T08:36:03.281Z,958.67
2016-11-16T08:37:03.300Z,958.66
2016-11-16T08:38:03.317Z,958.58
2016-11-16T08:39:03.337Z,958.66
2016-11-16T08:40:03.381Z,958.6
2016-11-16T08:41:03.373Z,958.57
2016-11-16T08:42:03.391Z,958.64
2016-11-16T08:43:03.409Z,958.56
2016-11-16T08:44:03.427Z,958.54
2016-11-16T08:45:03.445Z,958.6
2016-11-16T08:46:03.464Z,958.56
2016-11-16T08:47:03.482Z,958.6
2016-11-16T08:48:03.501Z,958.54
2016-11-16T08:49:03.519Z,958.5
2016-11-16T08:50:03.560Z,958.52
2016-11-16T08:51:03.554Z,958.48
2016-11-16T08:52:03.573Z,958.49
2016-11-16T08:53:03.592Z,958.48
2016-11-16T08:54:03.610Z,958.46
2016-11-16T08:55:03.640Z,958.48
2016-11-16T08:56:03.646Z,958.46
2016-11-16T08:57:03.664Z,958.47
2016-11-16T08:58:03.683Z,958.46
2016-11-16T08:59:03.701Z,958.4
2016-11-16T09:00:03.749Z,958.42
2016-11-16T09:01:03.738Z,958.43
2016-11-16T09:02:03.756Z,958.44
2016-11-16T09:03:03.775Z,958.43
2016-11-16T09:04:03.794Z,958.39
2016-11-16T09:05:03.816Z,958.42
2016-11-16T09:06:03.830Z,958.4
2016-11-16T09:07:03.849Z,958.4
2016-11-16T09:08:03.868Z,958.43
2016-11-16T09:09:03.885Z,958.42
2016-11-16T09:10:03.918Z,958.38
2016-11-16T09:11:03.922Z,958.39
2016-11-16T09:12:03.939Z,958.38
2016-11-16T09:13:03.957Z,958.38
2016-11-16T09:14:03.976Z,958.39
2016-11-16T09:15:04.000Z,958.41
2016-11-16T09:16:04.014Z,958.4
2016-11-16T09:17:04.030Z,958.41
2016-11-16T09:18:04.050Z,958.46
2016-11-16T09:19:04.068Z,958.42
2016-11-16T09:20:04.088Z,958.38
2016-11-16T09:21:04.105Z,958.41
2016-11-16T09:22:04.124Z,958.42
2016-11-16T09:23:04.144Z,958.39
2016-11-16T09:24:04.162Z,958.35
2016-11-16T09:25:04.185Z,958.4
2016-11-16T09:26:04.197Z,958.36
2016-11-16T09:27:04.216Z,958.38
2016-11-16T09:28:04.234Z,958.36
2016-11-16T09:29:04.253Z,958.38
2016-11-16T09:30:04.272Z,958.37
2016-11-16T09:31:04.289Z,958.31
2016-11-16T09:32:04.307Z,958.34
2016-11-16T09:33:04.327Z,958.33
2016-11-16T09:34:04.344Z,958.35
2016-11-16T09:35:04.380Z,958.33
2016-11-16T09:36:04.382Z,958.34
2016-11-16T09:37:04.401Z,958.36
2016-11-16T09:38:04.420Z,958.36
2016-11-16T09:39:04.437Z,958.32
2016-11-16T09:40:04.470Z,958.38
2016-11-16T09:41:04.475Z,958.33
2016-11-16T09:42:04.492Z,958.34
2016-11-16T09:43:04.511Z,958.36
2016-11-16T09:44:04.530Z,958.37
2016-11-16T09:45:04.547Z,958.36
2016-11-16T09:46:04.567Z,958.33
2016-11-16T09:47:04.586Z,958.33
2016-11-16T09:48:04.604Z,958.33
2016-11-16T09:49:04.622Z,958.27
2016-11-16T09:50:04.644Z,958.29
2016-11-16T09:51:04.660Z,958.29
2016-11-16T09:52:04.679Z,958.34
2016-11-16T09:53:04.703Z,958.28
2016-11-16T09:54:04.714Z,958.27
2016-11-16T09:55:04.734Z,958.27
2016-11-16T09:56:04.752Z,958.26
2016-11-16T09:57:04.771Z,958.26
2016-11-16T09:58:04.789Z,958.21
2016-11-16T09:59:04.808Z,958.24
2016-11-16T10:00:04.827Z,958.21
2016-11-16T10:01:04.847Z,958.21
2016-11-16T10:02:04.864Z,958.18
2016-11-16T10:03:04.883Z,958.12
2016-11-16T10:04:04.900Z,958.11
2016-11-16T10:05:04.920Z,958.09
2016-11-16T10:06:04.938Z,958.12
2016-11-16T10:07:04.957Z,958.02
2016-11-16T10:08:04.984Z,958.06
2016-11-16T10:09:04.995Z,958.02
2016-11-16T10:10:05.018Z,958.01
2016-11-16T10:11:05.032Z,957.98
2016-11-16T10:12:05.051Z,957.99
2016-11-16T10:13:05.072Z,958
2016-11-16T10:14:05.090Z,957.97
2016-11-16T10:15:05.108Z,957.89
2016-11-16T10:16:05.127Z,957.95
2016-11-16T10:17:05.146Z,957.92
2016-11-16T10:18:05.163Z,957.89
2016-11-16T10:19:05.183Z,957.92
2016-11-16T10:20:05.208Z,957.86
2016-11-16T10:21:05.221Z,957.88
2016-11-16T10:22:05.240Z,957.85
2016-11-16T10:23:05.265Z,957.86
2016-11-16T10:24:05.277Z,957.84
2016-11-16T10:25:05.297Z,957.82
2016-11-16T10:26:05.315Z,957.81
2016-11-16T10:27:05.334Z,957.79
2016-11-16T10:28:05.353Z,957.76
2016-11-16T10:29:05.371Z,957.74
2016-11-16T10:30:05.398Z,957.73
2016-11-16T10:31:05.409Z,957.73
2016-11-16T10:32:05.429Z,957.71
2016-11-16T10:33:05.446Z,957.7
2016-11-16T10:34:05.466Z,957.66
2016-11-16T10:35:05.493Z,957.71
2016-11-16T10:36:05.505Z,957.68
2016-11-16T10:37:05.524Z,957.67
2016-11-16T10:38:05.547Z,957.62
2016-11-16T10:39:05.563Z,957.6
2016-11-16T10:40:05.580Z,957.61
2016-11-16T10:41:05.600Z,957.6
2016-11-16T10:42:05.620Z,957.57
2016-11-16T10:43:05.642Z,957.5
2016-11-16T10:44:05.657Z,957.53
2016-11-16T10:45:05.682Z,957.51
2016-11-16T10:46:05.697Z,957.5
2016-11-16T10:47:05.715Z,957.48
2016-11-16T10:48:05.735Z,957.46
2016-11-16T10:49:05.958Z,957.48
2016-11-16T10:50:05.781Z,957.44
2016-11-16T10:51:05.792Z,957.43
2016-11-16T10:52:05.810Z,957.4
2016-11-16T10:53:05.834Z,957.47
2016-11-16T10:54:05.850Z,957.42
2016-11-16T10:55:05.869Z,957.42
2016-11-16T10:56:05.887Z,957.38
2016-11-16T10:57:05.907Z,957.38
2016-11-16T10:58:05.925Z,957.35
2016-11-16T10:59:05.946Z,957.37
2016-11-16T11:00:05.991Z,957.34
2016-11-16T11:01:05.985Z,957.35
2016-11-16T11:02:06.004Z,957.31
2016-11-16T11:03:06.023Z,957.31
2016-11-16T11:04:06.042Z,957.26
2016-11-16T11:05:06.062Z,957.28
2016-11-16T11:06:06.081Z,957.31
2016-11-16T11:07:06.100Z,957.33
2016-11-16T11:08:06.142Z,957.26
2016-11-16T11:09:06.139Z,957.3
2016-11-16T11:10:06.158Z,957.28
2016-11-16T11:11:06.179Z,957.26
2016-11-16T11:12:06.196Z,957.29
2016-11-16T11:13:06.217Z,957.23
2016-11-16T11:14:06.236Z,957.21
2016-11-16T11:15:06.256Z,957.25
2016-11-16T11:16:06.275Z,957.22
2016-11-16T11:17:06.294Z,957.17
2016-11-16T11:18:06.314Z,957.22
2016-11-16T11:19:06.334Z,957.18
2016-11-16T11:20:06.364Z,957.19
2016-11-16T11:21:06.371Z,957.18
2016-11-16T11:22:06.392Z,957.18
2016-11-16T11:23:06.412Z,957.15
2016-11-16T11:24:06.429Z,957.15
2016-11-16T11:25:06.450Z,957.14
2016-11-16T11:26:06.470Z,957.12
2016-11-16T11:27:06.491Z,957.13
2016-11-16T11:28:06.509Z,957.11
2016-11-16T11:29:06.528Z,957.1
2016-11-16T11:30:06.548Z,957.16
2016-11-16T11:31:06.567Z,957.16
2016-11-16T11:32:06.588Z,957.11
2016-11-16T11:33:06.607Z,957.11
2016-11-16T11:34:06.627Z,957.06
2016-11-16T11:35:06.646Z,957.12
2016-11-16T11:36:06.665Z,957.08
2016-11-16T11:37:06.686Z,957.09
2016-11-16T11:38:06.729Z,957.07
2016-11-16T11:39:06.724Z,957.04
2016-11-16T11:40:06.744Z,957.09
2016-11-16T11:41:06.763Z,957.07
2016-11-16T11:42:06.782Z,957.09
2016-11-16T11:43:06.801Z,957.1
2016-11-16T11:44:06.823Z,957.08
2016-11-16T11:45:06.842Z,957.06
2016-11-16T11:46:06.877Z,957.05
2016-11-16T11:47:06.880Z,957.03
2016-11-16T11:48:06.901Z,957.04
2016-11-16T11:49:06.920Z,957
2016-11-16T11:50:06.940Z,956.98
2016-11-16T11:51:06.961Z,956.99
2016-11-16T11:52:06.980Z,956.95
2016-11-16T11:53:06.999Z,956.92
2016-11-16T11:54:07.035Z,956.89
2016-11-16T11:55:07.039Z,956.9
2016-11-16T11:56:07.059Z,956.85
2016-11-16T11:57:07.077Z,956.84
2016-11-16T11:58:07.098Z,956.85
2016-11-16T11:59:07.119Z,956.83
2016-11-16T12:00:07.142Z,956.84
2016-11-16T12:01:07.159Z,956.85
2016-11-16T12:02:07.176Z,956.87
2016-11-16T12:03:07.197Z,956.86
2016-11-16T12:04:07.215Z,956.82
2016-11-16T12:05:07.236Z,956.79
2016-11-16T12:06:07.258Z,956.79
2016-11-16T12:07:07.276Z,956.82
2016-11-16T12:08:07.295Z,956.77
2016-11-16T12:09:07.316Z,956.73
2016-11-16T12:10:07.334Z,956.77
2016-11-16T12:11:07.355Z,956.76
2016-11-16T12:12:07.374Z,956.76
2016-11-16T12:13:07.396Z,956.75
2016-11-16T12:14:07.417Z,956.73
2016-11-16T12:15:07.433Z,956.76
2016-11-16T12:16:07.455Z,956.75
2016-11-16T12:17:07.476Z,956.74
2016-11-16T12:18:07.495Z,956.71
2016-11-16T12:19:07.514Z,956.69
2016-11-16T12:20:07.535Z,956.71
2016-11-16T12:21:07.557Z,956.66
2016-11-16T12:22:07.577Z,956.67
2016-11-16T12:23:07.593Z,956.68
2016-11-16T12:24:07.617Z,956.66
2016-11-16T12:25:07.636Z,956.6
2016-11-16T12:26:07.652Z,956.6
2016-11-16T12:27:07.673Z,956.6
2016-11-16T12:28:07.693Z,956.59
2016-11-16T12:29:07.713Z,956.54
2016-11-16T12:30:07.748Z,956.58
2016-11-16T12:31:07.753Z,956.52
2016-11-16T12:32:07.773Z,956.51
2016-11-16T12:33:07.792Z,956.48